sensor_id;sensor_type;location;lat;lon;timestamp;temperature;humidity
4354;DHT22;11018;51.258;6.806;2023-05-29T00:00:05;15.40;27.40
4354;DHT22;11018;51.258;6.806;2023-05-29T00:02:33;15.30;27.50
4354;DHT22;11018;51.258;6.806;2023-05-29T00:04:58;15.30;27.60
4354;DHT22;11018;51.258;6.806;2023-05-29T00:07:24;15.20;28.20
4354;DHT22;11018;51.258;6.806;2023-05-29T00:09:49;15.20;28.40
4354;DHT22;11018;51.258;6.806;2023-05-29T00:12:15;15.20;28.40
4354;DHT22;11018;51.258;6.806;2023-05-29T00:14:40;15.10;28.50
4354;DHT22;11018;51.258;6.806;2023-05-29T00:17:06;15.00;28.80
4354;DHT22;11018;51.258;6.806;2023-05-29T00:19:31;15.00;29.20
4354;DHT22;11018;51.258;6.806;2023-05-29T00:21:57;15.00;29.30
4354;DHT22;11018;51.258;6.806;2023-05-29T00:24:23;15.00;29.50
4354;DHT22;11018;51.258;6.806;2023-05-29T00:26:48;14.90;29.70
4354;DHT22;11018;51.258;6.806;2023-05-29T00:29:14;14.90;30.10
4354;DHT22;11018;51.258;6.806;2023-05-29T00:31:40;14.80;30.40
4354;DHT22;11018;51.258;6.806;2023-05-29T00:34:05;14.80;30.80
4354;DHT22;11018;51.258;6.806;2023-05-29T00:36:31;14.80;31.00
4354;DHT22;11018;51.258;6.806;2023-05-29T00:38:57;14.70;31.30
4354;DHT22;11018;51.258;6.806;2023-05-29T00:41:22;14.70;31.60
4354;DHT22;11018;51.258;6.806;2023-05-29T00:43:48;14.70;31.90
4354;DHT22;11018;51.258;6.806;2023-05-29T00:46:15;14.60;32.10
4354;DHT22;11018;51.258;6.806;2023-05-29T00:48:44;14.60;32.70
4354;DHT22;11018;51.258;6.806;2023-05-29T00:51:10;14.60;33.00
4354;DHT22;11018;51.258;6.806;2023-05-29T00:53:39;14.60;33.60
4354;DHT22;11018;51.258;6.806;2023-05-29T00:56:06;14.50;34.40
4354;DHT22;11018;51.258;6.806;2023-05-29T00:58:32;14.50;35.00
4354;DHT22;11018;51.258;6.806;2023-05-29T01:00:58;14.40;35.40
4354;DHT22;11018;51.258;6.806;2023-05-29T01:03:24;14.40;36.00
4354;DHT22;11018;51.258;6.806;2023-05-29T01:05:50;14.40;36.80
4354;DHT22;11018;51.258;6.806;2023-05-29T01:08:17;14.20;37.20
4354;DHT22;11018;51.258;6.806;2023-05-29T01:10:43;14.20;37.80
4354;DHT22;11018;51.258;6.806;2023-05-29T01:13:18;14.10;38.60
4354;DHT22;11018;51.258;6.806;2023-05-29T01:15:58;14.10;39.90
4354;DHT22;11018;51.258;6.806;2023-05-29T01:18:39;14.00;40.20
4354;DHT22;11018;51.258;6.806;2023-05-29T01:29:12;13.90;44.10
4354;DHT22;11018;51.258;6.806;2023-05-29T01:31:39;13.80;44.60
4354;DHT22;11018;51.258;6.806;2023-05-29T01:34:05;13.70;45.80
4354;DHT22;11018;51.258;6.806;2023-05-29T01:36:31;13.70;46.10
4354;DHT22;11018;51.258;6.806;2023-05-29T01:38:58;13.70;46.80
4354;DHT22;11018;51.258;6.806;2023-05-29T01:41:25;13.60;47.00
4354;DHT22;11018;51.258;6.806;2023-05-29T01:43:52;13.60;47.80
4354;DHT22;11018;51.258;6.806;2023-05-29T01:46:18;13.60;48.30
4354;DHT22;11018;51.258;6.806;2023-05-29T01:48:45;13.50;48.70
4354;DHT22;11018;51.258;6.806;2023-05-29T01:51:12;13.40;48.20
4354;DHT22;11018;51.258;6.806;2023-05-29T01:53:39;13.40;48.70
4354;DHT22;11018;51.258;6.806;2023-05-29T01:56:06;13.40;48.60
4354;DHT22;11018;51.258;6.806;2023-05-29T01:58:32;13.30;48.90
4354;DHT22;11018;51.258;6.806;2023-05-29T02:01:00;13.30;49.70
4354;DHT22;11018;51.258;6.806;2023-05-29T02:03:25;13.20;50.30
4354;DHT22;11018;51.258;6.806;2023-05-29T02:05:54;13.10;51.00
4354;DHT22;11018;51.258;6.806;2023-05-29T02:08:21;13.10;52.00
4354;DHT22;11018;51.258;6.806;2023-05-29T02:10:46;13.20;51.10
4354;DHT22;11018;51.258;6.806;2023-05-29T02:13:12;13.10;51.90
4354;DHT22;11018;51.258;6.806;2023-05-29T02:15:37;13.10;52.30
4354;DHT22;11018;51.258;6.806;2023-05-29T02:18:03;13.10;52.80
4354;DHT22;11018;51.258;6.806;2023-05-29T02:20:28;13.00;52.30
4354;DHT22;11018;51.258;6.806;2023-05-29T02:22:54;13.00;52.60
4354;DHT22;11018;51.258;6.806;2023-05-29T02:25:20;13.00;53.30
4354;DHT22;11018;51.258;6.806;2023-05-29T02:27:45;12.90;53.90
4354;DHT22;11018;51.258;6.806;2023-05-29T02:30:11;12.90;54.20
4354;DHT22;11018;51.258;6.806;2023-05-29T02:32:36;12.80;55.00
4354;DHT22;11018;51.258;6.806;2023-05-29T02:35:03;12.80;54.50
4354;DHT22;11018;51.258;6.806;2023-05-29T02:37:28;12.70;54.80
4354;DHT22;11018;51.258;6.806;2023-05-29T02:39:54;12.70;54.70
4354;DHT22;11018;51.258;6.806;2023-05-29T02:42:20;12.60;54.40
4354;DHT22;11018;51.258;6.806;2023-05-29T02:44:45;12.60;54.60
4354;DHT22;11018;51.258;6.806;2023-05-29T02:47:11;12.50;54.20
4354;DHT22;11018;51.258;6.806;2023-05-29T02:49:36;12.50;54.00
4354;DHT22;11018;51.258;6.806;2023-05-29T02:52:02;12.40;53.60
4354;DHT22;11018;51.258;6.806;2023-05-29T02:54:28;12.30;54.30
4354;DHT22;11018;51.258;6.806;2023-05-29T02:56:53;12.30;53.90
4354;DHT22;11018;51.258;6.806;2023-05-29T02:59:19;12.30;53.50
4354;DHT22;11018;51.258;6.806;2023-05-29T03:01:45;12.30;53.10
4354;DHT22;11018;51.258;6.806;2023-05-29T03:04:12;12.20;53.00
4354;DHT22;11018;51.258;6.806;2023-05-29T03:06:38;12.20;53.00
4354;DHT22;11018;51.258;6.806;2023-05-29T03:09:03;12.20;52.40
4354;DHT22;11018;51.258;6.806;2023-05-29T03:11:32;12.20;52.70
4354;DHT22;11018;51.258;6.806;2023-05-29T03:13:58;12.10;53.10
4354;DHT22;11018;51.258;6.806;2023-05-29T03:16:24;12.10;53.40
4354;DHT22;11018;51.258;6.806;2023-05-29T03:18:50;12.10;53.10
4354;DHT22;11018;51.258;6.806;2023-05-29T03:21:16;12.10;52.40
4354;DHT22;11018;51.258;6.806;2023-05-29T03:23:42;12.10;52.50
4354;DHT22;11018;51.258;6.806;2023-05-29T03:26:07;12.00;52.90
4354;DHT22;11018;51.258;6.806;2023-05-29T03:28:33;12.00;53.60
4354;DHT22;11018;51.258;6.806;2023-05-29T03:30:59;12.10;52.00
4354;DHT22;11018;51.258;6.806;2023-05-29T03:33:25;12.10;52.20
4354;DHT22;11018;51.258;6.806;2023-05-29T03:35:50;12.00;52.20
4354;DHT22;11018;51.258;6.806;2023-05-29T03:38:16;11.90;52.70
4354;DHT22;11018;51.258;6.806;2023-05-29T03:40:42;12.00;52.50
4354;DHT22;11018;51.258;6.806;2023-05-29T03:43:07;12.00;51.80
4354;DHT22;11018;51.258;6.806;2023-05-29T03:45:33;12.00;51.00
4354;DHT22;11018;51.258;6.806;2023-05-29T03:47:58;12.00;51.70
4354;DHT22;11018;51.258;6.806;2023-05-29T03:50:24;12.00;52.70
4354;DHT22;11018;51.258;6.806;2023-05-29T03:52:50;12.00;51.50
4354;DHT22;11018;51.258;6.806;2023-05-29T03:55:15;12.00;51.00
4354;DHT22;11018;51.258;6.806;2023-05-29T03:57:41;11.90;51.20
4354;DHT22;11018;51.258;6.806;2023-05-29T04:00:08;12.00;51.60
4354;DHT22;11018;51.258;6.806;2023-05-29T04:02:36;12.00;51.60
4354;DHT22;11018;51.258;6.806;2023-05-29T04:05:03;12.00;52.00
4354;DHT22;11018;51.258;6.806;2023-05-29T04:07:29;12.00;51.90
4354;DHT22;11018;51.258;6.806;2023-05-29T04:09:54;11.90;52.20
4354;DHT22;11018;51.258;6.806;2023-05-29T04:12:20;11.90;52.30
4354;DHT22;11018;51.258;6.806;2023-05-29T04:14:45;12.00;52.60
4354;DHT22;11018;51.258;6.806;2023-05-29T04:17:11;12.00;52.60
4354;DHT22;11018;51.258;6.806;2023-05-29T04:19:36;12.00;53.00
4354;DHT22;11018;51.258;6.806;2023-05-29T04:22:02;11.90;53.90
4354;DHT22;11018;51.258;6.806;2023-05-29T04:24:27;11.90;54.50
4354;DHT22;11018;51.258;6.806;2023-05-29T04:26:53;11.90;54.30
4354;DHT22;11018;51.258;6.806;2023-05-29T04:29:18;11.90;54.40
4354;DHT22;11018;51.258;6.806;2023-05-29T04:31:44;11.90;54.20
4354;DHT22;11018;51.258;6.806;2023-05-29T04:34:10;11.90;54.40
4354;DHT22;11018;51.258;6.806;2023-05-29T04:36:36;11.90;54.60
4354;DHT22;11018;51.258;6.806;2023-05-29T04:39:05;11.90;54.80
4354;DHT22;11018;51.258;6.806;2023-05-29T04:41:32;12.00;54.70
4354;DHT22;11018;51.258;6.806;2023-05-29T04:43:58;12.00;54.40
4354;DHT22;11018;51.258;6.806;2023-05-29T04:46:24;12.00;54.20
4354;DHT22;11018;51.258;6.806;2023-05-29T04:48:53;12.00;54.70
4354;DHT22;11018;51.258;6.806;2023-05-29T04:51:19;12.00;54.30
4354;DHT22;11018;51.258;6.806;2023-05-29T04:53:45;12.00;54.50
4354;DHT22;11018;51.258;6.806;2023-05-29T04:56:12;12.10;54.00
4354;DHT22;11018;51.258;6.806;2023-05-29T04:58:38;12.20;53.30
4354;DHT22;11018;51.258;6.806;2023-05-29T05:01:04;12.20;52.30
4354;DHT22;11018;51.258;6.806;2023-05-29T05:03:30;12.20;51.90
4354;DHT22;11018;51.258;6.806;2023-05-29T05:06:03;12.20;51.90
4354;DHT22;11018;51.258;6.806;2023-05-29T05:08:29;12.20;53.00
4354;DHT22;11018;51.258;6.806;2023-05-29T05:10:55;12.20;52.10
4354;DHT22;11018;51.258;6.806;2023-05-29T05:13:21;12.30;52.20
4354;DHT22;11018;51.258;6.806;2023-05-29T05:15:46;12.30;51.40
4354;DHT22;11018;51.258;6.806;2023-05-29T05:18:12;12.40;52.50
4354;DHT22;11018;51.258;6.806;2023-05-29T05:20:37;12.40;50.40
4354;DHT22;11018;51.258;6.806;2023-05-29T05:23:03;12.50;49.60
4354;DHT22;11018;51.258;6.806;2023-05-29T05:25:28;12.60;48.40
4354;DHT22;11018;51.258;6.806;2023-05-29T05:27:54;12.60;48.90
4354;DHT22;11018;51.258;6.806;2023-05-29T05:30:19;12.70;47.50
4354;DHT22;11018;51.258;6.806;2023-05-29T05:32:45;12.70;47.10
4354;DHT22;11018;51.258;6.806;2023-05-29T05:35:11;12.80;45.80
4354;DHT22;11018;51.258;6.806;2023-05-29T05:37:37;12.80;45.30
4354;DHT22;11018;51.258;6.806;2023-05-29T05:40:03;12.80;45.40
4354;DHT22;11018;51.258;6.806;2023-05-29T05:42:32;12.80;46.20
4354;DHT22;11018;51.258;6.806;2023-05-29T05:44:57;12.90;45.60
4354;DHT22;11018;51.258;6.806;2023-05-29T05:47:23;13.00;44.20
4354;DHT22;11018;51.258;6.806;2023-05-29T05:49:48;13.10;43.70
4354;DHT22;11018;51.258;6.806;2023-05-29T05:52:17;13.10;42.80
4354;DHT22;11018;51.258;6.806;2023-05-29T05:54:42;13.20;43.50
4354;DHT22;11018;51.258;6.806;2023-05-29T05:57:09;13.30;42.40
4354;DHT22;11018;51.258;6.806;2023-05-29T05:59:34;13.40;41.20
4354;DHT22;11018;51.258;6.806;2023-05-29T06:02:00;13.30;40.60
4354;DHT22;11018;51.258;6.806;2023-05-29T06:04:25;13.20;42.00
4354;DHT22;11018;51.258;6.806;2023-05-29T06:06:51;13.30;41.20
4354;DHT22;11018;51.258;6.806;2023-05-29T06:09:17;13.40;41.50
4354;DHT22;11018;51.258;6.806;2023-05-29T06:11:42;13.50;41.00
4354;DHT22;11018;51.258;6.806;2023-05-29T06:14:08;13.60;39.10
4354;DHT22;11018;51.258;6.806;2023-05-29T06:16:34;13.70;38.60
4354;DHT22;11018;51.258;6.806;2023-05-29T06:19:00;13.70;38.50
4354;DHT22;11018;51.258;6.806;2023-05-29T06:21:26;13.80;38.90
4354;DHT22;11018;51.258;6.806;2023-05-29T06:23:52;14.10;37.30
4354;DHT22;11018;51.258;6.806;2023-05-29T06:26:17;14.20;36.30
4354;DHT22;11018;51.258;6.806;2023-05-29T06:28:43;14.10;36.00
4354;DHT22;11018;51.258;6.806;2023-05-29T06:31:08;14.20;36.10
4354;DHT22;11018;51.258;6.806;2023-05-29T06:33:36;14.30;35.90
4354;DHT22;11018;51.258;6.806;2023-05-29T06:36:03;14.50;35.00
4354;DHT22;11018;51.258;6.806;2023-05-29T06:38:28;14.40;34.70
4354;DHT22;11018;51.258;6.806;2023-05-29T06:40:54;14.20;35.80
4354;DHT22;11018;51.258;6.806;2023-05-29T06:43:19;14.30;35.80
4354;DHT22;11018;51.258;6.806;2023-05-29T06:45:45;14.40;34.90
4354;DHT22;11018;51.258;6.806;2023-05-29T06:48:10;14.30;34.80
4354;DHT22;11018;51.258;6.806;2023-05-29T06:50:36;14.10;35.90
4354;DHT22;11018;51.258;6.806;2023-05-29T06:53:01;14.20;35.30
4354;DHT22;11018;51.258;6.806;2023-05-29T06:55:27;14.30;35.30
4354;DHT22;11018;51.258;6.806;2023-05-29T06:57:52;14.30;34.80
4354;DHT22;11018;51.258;6.806;2023-05-29T07:00:18;14.40;35.90
4354;DHT22;11018;51.258;6.806;2023-05-29T07:02:44;14.60;34.00
4354;DHT22;11018;51.258;6.806;2023-05-29T07:05:09;14.70;33.10
4354;DHT22;11018;51.258;6.806;2023-05-29T07:07:35;14.80;33.10
4354;DHT22;11018;51.258;6.806;2023-05-29T07:10:01;14.90;32.90
4354;DHT22;11018;51.258;6.806;2023-05-29T07:12:26;15.10;32.80
4354;DHT22;11018;51.258;6.806;2023-05-29T07:14:52;15.10;31.00
4354;DHT22;11018;51.258;6.806;2023-05-29T07:17:17;14.90;32.50
4354;DHT22;11018;51.258;6.806;2023-05-29T07:19:43;14.80;33.30
4354;DHT22;11018;51.258;6.806;2023-05-29T07:22:09;14.80;33.50
4354;DHT22;11018;51.258;6.806;2023-05-29T07:24:34;15.00;32.70
4354;DHT22;11018;51.258;6.806;2023-05-29T07:27:00;15.30;32.20
4354;DHT22;11018;51.258;6.806;2023-05-29T07:29:25;15.10;31.40
4354;DHT22;11018;51.258;6.806;2023-05-29T07:31:51;15.00;31.90
4354;DHT22;11018;51.258;6.806;2023-05-29T07:34:17;15.00;31.80
4354;DHT22;11018;51.258;6.806;2023-05-29T07:39:25;15.20;32.40
4354;DHT22;11018;51.258;6.806;2023-05-29T07:41:51;15.30;31.80
4354;DHT22;11018;51.258;6.806;2023-05-29T07:44:16;15.40;31.40
4354;DHT22;11018;51.258;6.806;2023-05-29T07:46:42;15.50;31.30
4354;DHT22;11018;51.258;6.806;2023-05-29T07:49:07;15.60;31.40
4354;DHT22;11018;51.258;6.806;2023-05-29T07:51:33;15.80;30.90
4354;DHT22;11018;51.258;6.806;2023-05-29T07:53:58;16.00;28.40
4354;DHT22;11018;51.258;6.806;2023-05-29T07:56:24;15.70;29.30
4354;DHT22;11018;51.258;6.806;2023-05-29T07:58:51;15.50;30.70
4354;DHT22;11018;51.258;6.806;2023-05-29T08:01:19;15.70;30.70
4354;DHT22;11018;51.258;6.806;2023-05-29T08:03:44;15.90;29.30
4354;DHT22;11018;51.258;6.806;2023-05-29T08:06:10;16.10;29.20
4354;DHT22;11018;51.258;6.806;2023-05-29T08:08:36;16.20;29.20
4354;DHT22;11018;51.258;6.806;2023-05-29T08:11:02;16.30;27.40
4354;DHT22;11018;51.258;6.806;2023-05-29T08:13:30;16.30;28.00
4354;DHT22;11018;51.258;6.806;2023-05-29T08:15:55;16.60;28.40
4354;DHT22;11018;51.258;6.806;2023-05-29T08:18:21;16.90;26.90
4354;DHT22;11018;51.258;6.806;2023-05-29T08:20:47;17.00;25.90
4354;DHT22;11018;51.258;6.806;2023-05-29T08:23:13;17.20;26.40
4354;DHT22;11018;51.258;6.806;2023-05-29T08:25:38;17.00;24.30
4354;DHT22;11018;51.258;6.806;2023-05-29T08:28:04;16.90;25.20
4354;DHT22;11018;51.258;6.806;2023-05-29T08:30:29;16.60;25.90
4354;DHT22;11018;51.258;6.806;2023-05-29T08:32:55;16.60;26.80
4354;DHT22;11018;51.258;6.806;2023-05-29T08:35:20;16.80;26.30
4354;DHT22;11018;51.258;6.806;2023-05-29T08:37:46;17.00;26.40
4354;DHT22;11018;51.258;6.806;2023-05-29T08:40:11;17.30;26.50
4354;DHT22;11018;51.258;6.806;2023-05-29T08:42:45;17.60;24.70
4354;DHT22;11018;51.258;6.806;2023-05-29T08:45:13;17.40;24.30
4354;DHT22;11018;51.258;6.806;2023-05-29T08:47:40;17.20;24.00
4354;DHT22;11018;51.258;6.806;2023-05-29T08:50:06;17.20;23.80
4354;DHT22;11018;51.258;6.806;2023-05-29T08:52:34;17.10;24.70
4354;DHT22;11018;51.258;6.806;2023-05-29T08:55:03;17.20;25.70
4354;DHT22;11018;51.258;6.806;2023-05-29T08:57:30;17.40;24.60
4354;DHT22;11018;51.258;6.806;2023-05-29T08:59:56;17.70;23.30
4354;DHT22;11018;51.258;6.806;2023-05-29T09:02:22;17.80;22.70
4354;DHT22;11018;51.258;6.806;2023-05-29T09:04:48;18.00;22.20
4354;DHT22;11018;51.258;6.806;2023-05-29T09:07:15;18.30;22.00
4354;DHT22;11018;51.258;6.806;2023-05-29T09:09:41;18.40;21.40
4354;DHT22;11018;51.258;6.806;2023-05-29T09:12:07;18.50;21.30
4354;DHT22;11018;51.258;6.806;2023-05-29T09:14:36;18.40;20.90
4354;DHT22;11018;51.258;6.806;2023-05-29T09:17:02;18.30;21.60
4354;DHT22;11018;51.258;6.806;2023-05-29T09:19:29;18.30;21.20
4354;DHT22;11018;51.258;6.806;2023-05-29T09:22:05;17.70;21.90
4354;DHT22;11018;51.258;6.806;2023-05-29T09:24:35;17.70;22.90
4354;DHT22;11018;51.258;6.806;2023-05-29T09:29:32;17.80;22.90
4354;DHT22;11018;51.258;6.806;2023-05-29T09:31:58;17.80;22.90
4354;DHT22;11018;51.258;6.806;2023-05-29T09:34:24;17.70;22.30
4354;DHT22;11018;51.258;6.806;2023-05-29T09:36:54;17.80;23.10
4354;DHT22;11018;51.258;6.806;2023-05-29T09:39:28;17.90;23.60
4354;DHT22;11018;51.258;6.806;2023-05-29T09:41:53;18.00;21.60
4354;DHT22;11018;51.258;6.806;2023-05-29T09:44:19;18.10;22.30
4354;DHT22;11018;51.258;6.806;2023-05-29T09:46:48;18.10;21.60
4354;DHT22;11018;51.258;6.806;2023-05-29T09:49:14;18.10;21.80
4354;DHT22;11018;51.258;6.806;2023-05-29T09:51:40;18.20;21.60
4354;DHT22;11018;51.258;6.806;2023-05-29T09:54:13;18.30;21.40
4354;DHT22;11018;51.258;6.806;2023-05-29T09:56:42;18.30;21.50
4354;DHT22;11018;51.258;6.806;2023-05-29T09:59:11;18.30;21.80
4354;DHT22;11018;51.258;6.806;2023-05-29T10:01:40;18.60;21.30
4354;DHT22;11018;51.258;6.806;2023-05-29T10:04:07;18.80;20.00
4354;DHT22;11018;51.258;6.806;2023-05-29T10:06:35;18.70;20.00
4354;DHT22;11018;51.258;6.806;2023-05-29T10:09:02;18.40;20.00
4354;DHT22;11018;51.258;6.806;2023-05-29T10:11:29;18.30;21.40
4354;DHT22;11018;51.258;6.806;2023-05-29T10:13:57;18.40;20.80
4354;DHT22;11018;51.258;6.806;2023-05-29T10:16:23;18.60;20.10
4354;DHT22;11018;51.258;6.806;2023-05-29T10:18:56;18.50;20.60
4354;DHT22;11018;51.258;6.806;2023-05-29T10:21:26;18.80;19.80
4354;DHT22;11018;51.258;6.806;2023-05-29T10:23:52;18.90;19.00
4354;DHT22;11018;51.258;6.806;2023-05-29T10:26:25;18.70;19.50
4354;DHT22;11018;51.258;6.806;2023-05-29T10:32:05;19.00;19.20
4354;DHT22;11018;51.258;6.806;2023-05-29T10:37:50;18.90;18.80
4354;DHT22;11018;51.258;6.806;2023-05-29T10:40:23;19.10;19.00
4354;DHT22;11018;51.258;6.806;2023-05-29T10:42:50;19.00;18.40
4354;DHT22;11018;51.258;6.806;2023-05-29T10:50:45;19.30;18.00
4354;DHT22;11018;51.258;6.806;2023-05-29T10:53:15;19.20;18.70
4354;DHT22;11018;51.258;6.806;2023-05-29T10:55:42;19.50;18.40
4354;DHT22;11018;51.258;6.806;2023-05-29T10:58:14;19.60;17.70
4354;DHT22;11018;51.258;6.806;2023-05-29T11:00:41;19.80;18.00
4354;DHT22;11018;51.258;6.806;2023-05-29T11:03:14;19.80;17.80
4354;DHT22;11018;51.258;6.806;2023-05-29T11:08:36;19.40;17.20
4354;DHT22;11018;51.258;6.806;2023-05-29T11:11:07;19.30;17.70
4354;DHT22;11018;51.258;6.806;2023-05-29T11:13:37;19.30;18.00
4354;DHT22;11018;51.258;6.806;2023-05-29T11:16:14;19.50;17.40
4354;DHT22;11018;51.258;6.806;2023-05-29T11:18:46;19.70;17.70
4354;DHT22;11018;51.258;6.806;2023-05-29T11:24:36;20.30;15.90
4354;DHT22;11018;51.258;6.806;2023-05-29T11:27:03;20.30;16.10
4354;DHT22;11018;51.258;6.806;2023-05-29T11:29:32;20.40;16.60
4354;DHT22;11018;51.258;6.806;2023-05-29T11:32:05;20.10;16.10
4354;DHT22;11018;51.258;6.806;2023-05-29T11:34:32;20.00;16.60
4354;DHT22;11018;51.258;6.806;2023-05-29T11:37:01;20.20;15.40
4354;DHT22;11018;51.258;6.806;2023-05-29T11:39:28;20.20;16.00
4354;DHT22;11018;51.258;6.806;2023-05-29T11:41:54;20.40;15.90
4354;DHT22;11018;51.258;6.806;2023-05-29T11:44:23;20.60;16.10
4354;DHT22;11018;51.258;6.806;2023-05-29T11:47:03;20.90;15.20
4354;DHT22;11018;51.258;6.806;2023-05-29T11:49:29;21.20;15.30
4354;DHT22;11018;51.258;6.806;2023-05-29T11:52:14;21.40;13.40
4354;DHT22;11018;51.258;6.806;2023-05-29T11:54:40;21.20;14.10
4354;DHT22;11018;51.258;6.806;2023-05-29T11:57:20;21.40;13.30
4354;DHT22;11018;51.258;6.806;2023-05-29T11:59:46;21.10;14.10
4354;DHT22;11018;51.258;6.806;2023-05-29T12:02:12;21.10;14.90
4354;DHT22;11018;51.258;6.806;2023-05-29T12:04:38;21.40;13.40
4354;DHT22;11018;51.258;6.806;2023-05-29T12:07:17;21.60;13.00
4354;DHT22;11018;51.258;6.806;2023-05-29T12:09:43;21.50;14.30
4354;DHT22;11018;51.258;6.806;2023-05-29T12:12:08;21.60;13.40
4354;DHT22;11018;51.258;6.806;2023-05-29T12:14:34;21.50;12.80
4354;DHT22;11018;51.258;6.806;2023-05-29T12:17:00;21.10;14.10
4354;DHT22;11018;51.258;6.806;2023-05-29T12:19:26;21.30;14.50
4354;DHT22;11018;51.258;6.806;2023-05-29T12:21:51;21.70;13.80
4354;DHT22;11018;51.258;6.806;2023-05-29T12:24:20;21.90;13.00
4354;DHT22;11018;51.258;6.806;2023-05-29T12:26:46;22.10;12.50
4354;DHT22;11018;51.258;6.806;2023-05-29T12:29:15;21.80;12.70
4354;DHT22;11018;51.258;6.806;2023-05-29T12:31:40;21.70;12.60
4354;DHT22;11018;51.258;6.806;2023-05-29T12:34:11;21.60;13.30
4354;DHT22;11018;51.258;6.806;2023-05-29T12:36:40;21.30;13.40
4354;DHT22;11018;51.258;6.806;2023-05-29T12:39:07;20.80;13.20
4354;DHT22;11018;51.258;6.806;2023-05-29T12:41:37;21.00;13.70
4354;DHT22;11018;51.258;6.806;2023-05-29T12:44:04;21.50;13.00
4354;DHT22;11018;51.258;6.806;2023-05-29T12:46:39;21.70;12.70
4354;DHT22;11018;51.258;6.806;2023-05-29T12:49:15;21.60;12.90
4354;DHT22;11018;51.258;6.806;2023-05-29T12:51:42;21.50;12.80
4354;DHT22;11018;51.258;6.806;2023-05-29T12:54:10;21.80;12.80
4354;DHT22;11018;51.258;6.806;2023-05-29T12:56:35;21.70;12.40
4354;DHT22;11018;51.258;6.806;2023-05-29T12:59:01;21.50;12.80
4354;DHT22;11018;51.258;6.806;2023-05-29T13:01:27;21.90;13.40
4354;DHT22;11018;51.258;6.806;2023-05-29T13:03:52;22.10;11.70
4354;DHT22;11018;51.258;6.806;2023-05-29T13:06:18;21.90;12.00
4354;DHT22;11018;51.258;6.806;2023-05-29T13:08:43;22.50;12.00
4354;DHT22;11018;51.258;6.806;2023-05-29T13:11:09;23.20;11.10
4354;DHT22;11018;51.258;6.806;2023-05-29T13:13:35;23.10;11.40
4354;DHT22;11018;51.258;6.806;2023-05-29T13:16:00;23.20;10.90
4354;DHT22;11018;51.258;6.806;2023-05-29T13:18:26;23.30;10.20
4354;DHT22;11018;51.258;6.806;2023-05-29T13:20:51;23.60;9.90
4354;DHT22;11018;51.258;6.806;2023-05-29T13:23:17;23.20;9.80
4354;DHT22;11018;51.258;6.806;2023-05-29T13:25:42;23.10;10.90
4354;DHT22;11018;51.258;6.806;2023-05-29T13:28:08;23.60;9.90
4354;DHT22;11018;51.258;6.806;2023-05-29T13:30:34;23.60;9.80
4354;DHT22;11018;51.258;6.806;2023-05-29T13:32:59;23.50;9.90
4354;DHT22;11018;51.258;6.806;2023-05-29T13:35:25;23.80;9.30
4354;DHT22;11018;51.258;6.806;2023-05-29T13:37:50;23.90;9.80
4354;DHT22;11018;51.258;6.806;2023-05-29T13:40:16;23.60;8.40
4354;DHT22;11018;51.258;6.806;2023-05-29T13:42:42;23.50;9.70
4354;DHT22;11018;51.258;6.806;2023-05-29T13:45:08;23.50;9.20
4354;DHT22;11018;51.258;6.806;2023-05-29T13:47:34;23.60;9.90
4354;DHT22;11018;51.258;6.806;2023-05-29T13:50:00;23.70;9.40
4354;DHT22;11018;51.258;6.806;2023-05-29T13:52:26;23.30;9.60
4354;DHT22;11018;51.258;6.806;2023-05-29T13:54:52;23.70;9.50
4354;DHT22;11018;51.258;6.806;2023-05-29T13:57:18;24.30;8.20
4354;DHT22;11018;51.258;6.806;2023-05-29T13:59:44;23.90;8.50
4354;DHT22;11018;51.258;6.806;2023-05-29T14:02:10;23.80;9.80
4354;DHT22;11018;51.258;6.806;2023-05-29T14:04:37;23.80;8.80
4354;DHT22;11018;51.258;6.806;2023-05-29T14:07:04;23.60;9.10
4354;DHT22;11018;51.258;6.806;2023-05-29T14:09:29;23.40;8.30
4354;DHT22;11018;51.258;6.806;2023-05-29T14:11:56;23.20;9.50
4354;DHT22;11018;51.258;6.806;2023-05-29T14:14:23;22.90;9.50
4354;DHT22;11018;51.258;6.806;2023-05-29T14:16:49;22.50;10.40
4354;DHT22;11018;51.258;6.806;2023-05-29T14:19:15;23.10;9.60
4354;DHT22;11018;51.258;6.806;2023-05-29T14:21:41;23.00;9.30
4354;DHT22;11018;51.258;6.806;2023-05-29T14:24:06;22.60;9.90
4354;DHT22;11018;51.258;6.806;2023-05-29T14:26:33;22.60;10.50
4354;DHT22;11018;51.258;6.806;2023-05-29T14:28:58;22.70;10.70
4354;DHT22;11018;51.258;6.806;2023-05-29T14:31:24;22.60;10.20
4354;DHT22;11018;51.258;6.806;2023-05-29T14:33:49;22.50;10.40
4354;DHT22;11018;51.258;6.806;2023-05-29T14:36:15;22.50;10.30
4354;DHT22;11018;51.258;6.806;2023-05-29T14:38:40;22.60;10.30
4354;DHT22;11018;51.258;6.806;2023-05-29T14:41:08;22.50;10.00
4354;DHT22;11018;51.258;6.806;2023-05-29T14:43:33;22.10;10.90
4354;DHT22;11018;51.258;6.806;2023-05-29T14:45:59;22.40;10.30
4354;DHT22;11018;51.258;6.806;2023-05-29T14:48:24;22.60;9.00
4354;DHT22;11018;51.258;6.806;2023-05-29T14:50:50;22.60;9.70
4354;DHT22;11018;51.258;6.806;2023-05-29T14:53:15;22.80;9.40
4354;DHT22;11018;51.258;6.806;2023-05-29T14:55:41;23.00;8.90
4354;DHT22;11018;51.258;6.806;2023-05-29T14:58:06;22.50;9.30
4354;DHT22;11018;51.258;6.806;2023-05-29T15:00:32;22.40;9.90
4354;DHT22;11018;51.258;6.806;2023-05-29T15:02:57;22.30;9.80
4354;DHT22;11018;51.258;6.806;2023-05-29T15:05:28;22.80;9.20
4354;DHT22;11018;51.258;6.806;2023-05-29T15:07:54;23.40;8.40
4354;DHT22;11018;51.258;6.806;2023-05-29T15:10:23;24.20;7.40
4354;DHT22;11018;51.258;6.806;2023-05-29T15:12:50;24.40;6.50
4354;DHT22;11018;51.258;6.806;2023-05-29T15:15:25;24.60;5.50
4354;DHT22;11018;51.258;6.806;2023-05-29T15:17:51;24.70;6.00
4354;DHT22;11018;51.258;6.806;2023-05-29T15:20:24;24.80;5.50
4354;DHT22;11018;51.258;6.806;2023-05-29T15:22:50;24.90;4.60
4354;DHT22;11018;51.258;6.806;2023-05-29T15:25:17;24.40;5.10
4354;DHT22;11018;51.258;6.806;2023-05-29T15:27:43;24.30;5.30
4354;DHT22;11018;51.258;6.806;2023-05-29T15:30:14;24.60;5.60
4354;DHT22;11018;51.258;6.806;2023-05-29T15:32:40;24.90;4.30
4354;DHT22;11018;51.258;6.806;2023-05-29T15:35:10;24.90;4.10
4354;DHT22;11018;51.258;6.806;2023-05-29T15:37:37;24.90;4.00
4354;DHT22;11018;51.258;6.806;2023-05-29T15:40:03;24.90;3.60
4354;DHT22;11018;51.258;6.806;2023-05-29T15:42:29;25.00;4.10
4354;DHT22;11018;51.258;6.806;2023-05-29T15:44:54;25.40;4.30
4354;DHT22;11018;51.258;6.806;2023-05-29T15:47:20;25.20;3.50
4354;DHT22;11018;51.258;6.806;2023-05-29T15:49:46;25.40;2.60
4354;DHT22;11018;51.258;6.806;2023-05-29T15:52:13;25.70;2.90
4354;DHT22;11018;51.258;6.806;2023-05-29T15:54:38;25.40;3.00
4354;DHT22;11018;51.258;6.806;2023-05-29T15:57:05;26.00;3.10
4354;DHT22;11018;51.258;6.806;2023-05-29T15:59:31;26.40;1.50
4354;DHT22;11018;51.258;6.806;2023-05-29T16:01:58;27.10;1.10
4354;DHT22;11018;51.258;6.806;2023-05-29T16:04:23;27.00;1.00
4354;DHT22;11018;51.258;6.806;2023-05-29T16:06:49;26.60;1.20
4354;DHT22;11018;51.258;6.806;2023-05-29T16:09:15;27.00;1.00
4354;DHT22;11018;51.258;6.806;2023-05-29T16:11:41;26.50;1.00
4354;DHT22;11018;51.258;6.806;2023-05-29T16:14:07;27.00;1.20